Terminal Aerodrome Forecast
Issued by NWS Albuquerque, NM

Home | Current Version | Previous Version | Text Only | Print | Product List | Glossary On
Versions: 1 2 3 4 5 6 7 8 9 10 11 12 13 14 15 16 17
000
FTUS45 KABQ 250527
TAFABQ
TAF
KABQ 250527Z 2506/2606 36006KT P6SM SCT040 BKN070
     FM250900 VRB05KT P6SM FEW040 BKN090
     FM252100 28011G18KT P6SM VCSH BKN070
     FM260300 36005KT P6SM FEW060 BKN100=

USA.gov is the U.S. government's official web portal to all federal, state and local government web resources and services.